Time;durP1;ratioP1;P1;durP2;ratioP2;P2;SDS_P1;SDS_P2;PMS_P1;PMS_P2;Temp;Humidity;BMP_temperature;BMP_pressure;BME280_temperature;BME280_humidity;BME280_pressure;Samples;Min_cycle;Max_cycle;Signal;HPM_P1;HPM_P2
2022/11/18 00:00:37;;;;;;;29.75;20.27;;;2.60;1.00;;;;;;5167338;27;20630;-86
2022/11/18 00:03:07;;;;;;;29.73;21.08;;;2.60;1.00;;;;;;5166691;27;20231;-83
2022/11/18 00:05:37;;;;;;;32.22;22.10;;;2.60;1.00;;;;;;5164645;27;20236;-84
2022/11/18 00:08:09;;;;;;;32.92;22.45;;;2.50;1.00;;;;;;5165748;27;20300;-81
2022/11/18 00:10:38;;;;;;;29.17;20.75;;;2.50;1.00;;;;;;5162424;27;20234;-80
2022/11/18 00:16:00;;;;;;;32.75;22.35;;;2.60;1.00;;;;;;5168073;27;20214;-83
2022/11/18 00:18:31;;;;;;;31.02;22.38;;;2.60;1.00;;;;;;5160134;27;20230;-81
2022/11/18 00:21:03;;;;;;;30.25;21.15;;;2.60;1.00;;;;;;5165068;27;20240;-84
2022/11/18 00:23:34;;;;;;;30.80;21.48;;;2.60;1.00;;;;;;5166646;27;20221;-84
2022/11/18 00:26:09;;;;;;;31.75;20.60;;;2.50;1.00;;;;;;5167446;27;20293;-83
2022/11/18 00:28:36;;;;;;;27.23;19.45;;;2.50;1.00;;;;;;5165292;27;20230;-86
2022/11/18 00:31:09;;;;;;;30.65;21.70;;;2.60;1.00;;;;;;5168357;27;20234;-84
2022/11/18 00:33:37;;;;;;;31.92;20.48;;;2.60;1.00;;;;;;5166237;27;20242;-79
2022/11/18 00:36:12;;;;;;;30.00;21.33;;;2.50;1.00;;;;;;5160191;27;21045;-81
2022/11/18 00:38:49;;;;;;;33.10;20.40;;;2.50;1.00;;;;;;5172590;27;20255;-84
2022/11/18 00:41:16;;;;;;;30.63;21.13;;;2.40;1.00;;;;;;5166469;27;20317;-85
2022/11/18 00:43:49;;;;;;;27.60;19.85;;;2.50;1.00;;;;;;5163101;27;20287;-85
2022/11/18 00:46:16;;;;;;;25.98;19.10;;;2.50;1.00;;;;;;5164323;27;20267;-80
2022/11/18 00:48:43;;;;;;;27.55;20.77;;;2.50;1.00;;;;;;5165891;27;20273;-83
2022/11/18 00:51:15;;;;;;;29.17;21.35;;;2.50;1.00;;;;;;5163626;27;20233;-83
2022/11/18 00:53:43;;;;;;;28.15;20.98;;;2.40;1.00;;;;;;5168230;27;20250;-83
2022/11/18 00:56:13;;;;;;;30.25;20.98;;;2.40;1.00;;;;;;5165619;27;20227;-84
2022/11/18 00:58:40;;;;;;;27.90;19.20;;;2.40;1.00;;;;;;5161815;27;20320;-83
2022/11/18 01:01:14;;;;;;;28.40;19.90;;;2.50;1.00;;;;;;5165966;27;20245;-80
2022/11/18 01:03:42;;;;;;;30.88;20.33;;;2.40;1.00;;;;;;5164601;27;20717;-81
2022/11/18 01:06:12;;;;;;;29.60;21.20;;;2.40;1.00;;;;;;5165352;27;20243;-79
2022/11/18 01:08:39;;;;;;;28.50;19.45;;;2.40;1.00;;;;;;5169438;27;20245;-84
2022/11/18 01:14:02;;;;;;;29.73;19.65;;;2.30;1.00;;;;;;5166492;27;20249;-84
2022/11/18 01:16:31;;;;;;;27.70;20.30;;;2.30;1.00;;;;;;5166444;27;20269;-80
2022/11/18 01:18:58;;;;;;;29.95;20.35;;;2.30;1.00;;;;;;5168797;27;20303;-80
2022/11/18 01:21:34;;;;;;;26.08;19.38;;;2.30;1.00;;;;;;5164158;27;20297;-83
2022/11/18 01:24:01;;;;;;;26.63;18.80;;;2.30;1.00;;;;;;5165514;27;20245;-80
2022/11/18 01:26:31;;;;;;;25.70;19.40;;;2.30;1.00;;;;;;5163156;27;20230;-83
2022/11/18 01:29:00;;;;;;;28.27;19.63;;;2.30;1.00;;;;;;5161719;27;20248;-84
2022/11/18 01:31:31;;;;;;;27.25;19.08;;;2.30;1.00;;;;;;5160191;27;20287;-79
2022/11/18 01:34:02;;;;;;;26.42;17.45;;;2.20;1.00;;;;;;5156610;27;20221;-81
2022/11/18 01:36:33;;;;;;;26.05;19.02;;;2.20;1.00;;;;;;5159399;27;21587;-79
2022/11/18 01:39:03;;;;;;;27.00;19.63;;;2.10;1.00;;;;;;5160357;27;20976;-79
2022/11/18 01:41:50;;;;;;;26.38;18.15;;;2.20;1.00;;;;;;5159307;27;20236;-81
2022/11/18 01:44:55;;;;;;;23.95;17.77;;;2.30;1.00;;;;;;5154828;27;20241;-80
2022/11/18 01:47:22;;;;;;;26.13;18.27;;;2.20;1.00;;;;;;5159130;27;20239;-80
2022/11/18 01:49:49;;;;;;;25.73;20.42;;;2.20;1.00;;;;;;5160832;27;20238;-81
2022/11/18 01:52:21;;;;;;;27.83;19.67;;;2.10;1.00;;;;;;5162392;27;20249;-80
2022/11/18 01:54:57;;;;;;;28.90;19.55;;;2.10;1.00;;;;;;5159630;27;22048;-80
2022/11/18 01:57:27;;;;;;;27.50;19.17;;;2.20;1.00;;;;;;5156413;27;20238;-80
2022/11/18 02:00:01;;;;;;;25.15;19.30;;;2.20;1.00;;;;;;5158902;27;20234;-82
2022/11/18 02:02:32;;;;;;;26.23;19.10;;;2.10;1.00;;;;;;5158321;27;20295;-84
2022/11/18 02:05:05;;;;;;;28.42;20.23;;;2.10;1.00;;;;;;5157735;27;20260;-83
2022/11/18 02:07:45;;;;;;;;;;;;;;;;;;;;;
2022/11/18 02:10:28;;;;;;;29.80;19.70;;;2.00;1.00;;;;;;5154662;27;41951;-82
2022/11/18 02:12:57;;;;;;;26.00;20.45;;;2.00;1.00;;;;;;5154525;27;20814;-83
2022/11/18 02:15:42;;;;;;;29.13;20.08;;;2.10;1.00;;;;;;5157908;27;20328;-83
2022/11/18 02:18:21;;;;;;;27.05;19.38;;;2.10;1.00;;;;;;5158773;27;20272;-82
2022/11/18 02:20:51;;;;;;;29.17;19.52;;;2.00;1.00;;;;;;5157175;27;20235;-83
2022/11/18 02:24:10;;;;;;;24.02;18.40;;;2.00;1.00;;;;;;5158100;27;20253;-82
2022/11/18 02:27:09;;;;;;;29.60;19.55;;;1.90;1.00;;;;;;5154812;27;20241;-84
2022/11/18 02:29:44;;;;;;;25.17;19.00;;;1.90;1.00;;;;;;5159797;27;20348;-83
2022/11/18 02:32:18;;;;;;;28.65;18.58;;;1.90;1.00;;;;;;5161071;27;20241;-84
2022/11/18 02:34:51;;;;;;;26.77;18.70;;;1.90;1.00;;;;;;5155958;27;20289;-83
2022/11/18 02:37:22;;;;;;;29.65;18.55;;;1.90;1.00;;;;;;5156643;27;20234;-83
2022/11/18 02:40:01;;;;;;;28.85;18.90;;;1.90;1.00;;;;;;5159310;27;20858;-81
2022/11/18 02:42:42;;;;;;;25.20;18.25;;;1.90;1.00;;;;;;5157878;27;20234;-80
2022/11/18 02:45:19;;;;;;;28.95;19.90;;;1.90;1.00;;;;;;5162062;27;21157;-83
2022/11/18 02:48:02;;;;;;;26.67;19.80;;;2.00;1.00;;;;;;5159635;27;20318;-82
2022/11/18 02:50:45;;;;;;;31.67;18.38;;;2.00;1.00;;;;;;5160880;27;20237;-85
2022/11/18 02:53:20;;;;;;;28.40;19.30;;;2.00;1.00;;;;;;5157220;27;20301;-80
2022/11/18 02:55:48;;;;;;;27.92;19.88;;;2.00;1.00;;;;;;5163618;27;20232;-80
2022/11/18 02:58:23;;;;;;;28.25;19.88;;;2.00;1.00;;;;;;5163414;27;20279;-84
2022/11/18 03:00:55;;;;;;;27.33;19.75;;;1.90;1.00;;;;;;5161633;27;20237;-83
2022/11/18 03:03:27;;;;;;;29.27;20.13;;;1.90;1.00;;;;;;5159818;27;20239;-83
2022/11/18 03:06:05;;;;;;;27.38;19.92;;;1.90;1.00;;;;;;5164421;27;20264;-84
2022/11/18 03:08:46;;;;;;;29.48;20.15;;;1.90;1.00;;;;;;5161598;27;20230;-85
2022/11/18 03:11:22;;;;;;;27.27;20.27;;;1.80;1.00;;;;;;5161351;27;20241;-83
2022/11/18 03:14:06;;;;;;;28.85;20.90;;;1.80;1.00;;;;;;5156903;27;21024;-80
2022/11/18 03:16:44;;;;;;;28.48;20.25;;;1.80;1.00;;;;;;5156539;27;20231;-82
2022/11/18 03:19:26;;;;;;;33.10;22.15;;;1.70;1.00;;;;;;5155784;27;20227;-80
2022/11/18 03:22:08;;;;;;;31.52;20.92;;;1.70;1.00;;;;;;5160601;27;20282;-83
2022/11/18 03:24:46;;;;;;;32.17;22.58;;;1.70;1.00;;;;;;5156271;27;20291;-83
2022/11/18 03:27:27;;;;;;;30.40;22.83;;;1.70;1.00;;;;;;5149720;27;20320;-83
2022/11/18 03:30:07;;;;;;;29.73;20.88;;;1.60;1.00;;;;;;5163042;27;20225;-83
2022/11/18 03:32:48;;;;;;;29.85;22.70;;;1.60;1.00;;;;;;5161002;27;20386;-79
2022/11/18 03:35:27;;;;;;;34.30;22.13;;;1.50;1.00;;;;;;5163742;27;20255;-84
2022/11/18 03:38:09;;;;;;;34.17;23.35;;;1.40;1.00;;;;;;5164952;27;20227;-83
2022/11/18 03:40:47;;;;;;;30.55;22.50;;;1.40;1.00;;;;;;5162523;27;20354;-80
2022/11/18 03:43:24;;;;;;;34.90;23.20;;;1.40;1.00;;;;;;5158965;27;20234;-84
2022/11/18 03:46:01;;;;;;;33.13;23.15;;;1.40;1.00;;;;;;5161112;27;20280;-79
2022/11/18 03:48:34;;;;;;;31.95;23.00;;;1.40;1.00;;;;;;5161562;27;20254;-83
2022/11/18 03:51:08;;;;;;;31.60;22.42;;;1.40;1.00;;;;;;5150332;27;20322;-84
2022/11/18 03:53:52;;;;;;;33.83;22.65;;;1.40;1.00;;;;;;5160748;27;20244;-83
2022/11/18 03:56:29;;;;;;;31.63;22.92;;;1.40;1.00;;;;;;5167693;27;20218;-80
2022/11/18 03:59:06;;;;;;;35.00;24.00;;;1.40;1.00;;;;;;5164516;27;20238;-82
2022/11/18 04:01:43;;;;;;;34.35;23.67;;;1.40;1.00;;;;;;5163437;27;20241;-83
2022/11/18 04:04:12;;;;;;;30.38;21.73;;;1.30;1.00;;;;;;5163505;27;20235;-82
2022/11/18 04:06:48;;;;;;;34.63;24.88;;;1.40;1.00;;;;;;5163786;27;20217;-80
2022/11/18 04:09:24;;;;;;;34.70;23.75;;;1.30;1.00;;;;;;5163054;27;20246;-81
2022/11/18 04:12:03;;;;;;;32.92;24.13;;;1.30;1.00;;;;;;5165957;27;20236;-80
2022/11/18 04:14:31;;;;;;;33.30;24.88;;;1.30;1.00;;;;;;5161418;27;21730;-83
2022/11/18 04:17:07;;;;;;;33.85;24.73;;;1.20;1.00;;;;;;5166006;27;20230;-83
2022/11/18 04:19:41;;;;;;;34.60;24.45;;;1.10;1.00;;;;;;5162096;27;20346;-83
2022/11/18 04:22:09;;;;;;;32.80;23.23;;;1.10;1.00;;;;;;5163325;27;20221;-83
2022/11/18 04:24:43;;;;;;;34.38;24.58;;;1.10;1.00;;;;;;5166552;27;20318;-83
2022/11/18 04:27:13;;;;;;;37.97;26.48;;;1.10;1.00;;;;;;5166538;27;20230;-83
2022/11/18 04:29:43;;;;;;;35.17;23.40;;;1.00;1.00;;;;;;5165816;27;20230;-82
2022/11/18 04:32:10;;;;;;;37.13;24.45;;;1.00;1.00;;;;;;5157295;27;20238;-80
2022/11/18 04:34:44;;;;;;;38.88;26.30;;;1.00;1.00;;;;;;5165027;27;20243;-80
2022/11/18 04:37:14;;;;;;;38.30;26.33;;;1.00;1.00;;;;;;5159774;27;20233;-85
2022/11/18 04:39:43;;;;;;;39.15;25.70;;;1.00;1.00;;;;;;5166258;27;20214;-83
2022/11/18 04:42:10;;;;;;;40.30;26.42;;;1.00;1.00;;;;;;5167752;27;20324;-78
2022/11/18 04:44:43;;;;;;;42.78;27.08;;;1.00;1.00;;;;;;5168231;27;20234;-80
2022/11/18 04:47:13;;;;;;;39.50;25.55;;;1.00;1.00;;;;;;5169263;27;20267;-85
2022/11/18 04:49:45;;;;;;;40.17;26.00;;;1.00;1.00;;;;;;5166602;27;20297;-80
2022/11/18 04:52:12;;;;;;;40.40;27.17;;;1.10;1.00;;;;;;5168289;27;20226;-82
2022/11/18 04:54:43;;;;;;;42.15;28.33;;;1.00;1.00;;;;;;5164952;27;20237;-80
2022/11/18 04:57:10;;;;;;;42.97;27.98;;;1.00;1.00;;;;;;5164895;27;20282;-80
2022/11/18 04:59:44;;;;;;;43.90;27.52;;;1.00;1.00;;;;;;5166159;27;21079;-84
2022/11/18 05:02:13;;;;;;;41.03;28.33;;;1.00;1.00;;;;;;5161738;27;21012;-83
2022/11/18 05:04:40;;;;;;;42.88;27.77;;;1.00;1.00;;;;;;5164977;27;20743;-81
2022/11/18 05:07:14;;;;;;;39.70;26.85;;;1.00;1.00;;;;;;5163319;27;20242;-80
2022/11/18 05:09:41;;;;;;;41.08;28.48;;;1.10;1.00;;;;;;5164006;27;20237;-82
2022/11/18 05:14:58;;;;;;;43.60;28.15;;;1.10;1.00;;;;;;5163006;27;20230;-80
2022/11/18 05:17:25;;;;;;;45.47;29.75;;;1.00;1.00;;;;;;5168351;27;20252;-80
2022/11/18 05:19:53;;;;;;;42.97;28.60;;;1.00;1.00;;;;;;5164556;27;20233;-81
2022/11/18 05:22:22;;;;;;;43.20;28.88;;;1.00;1.00;;;;;;5162284;27;20287;-82
2022/11/18 05:24:49;;;;;;;42.65;29.30;;;1.00;1.00;;;;;;5159734;27;20236;-87
2022/11/18 05:27:17;;;;;;;42.95;28.95;;;1.00;1.00;;;;;;5156332;27;20237;-85
2022/11/18 05:29:44;;;;;;;44.55;28.05;;;1.00;1.00;;;;;;5159103;27;20237;-85
2022/11/18 05:32:12;;;;;;;43.65;26.75;;;1.00;1.00;;;;;;5157036;27;20233;-84
2022/11/18 05:34:41;;;;;;;41.33;27.40;;;1.00;1.00;;;;;;5162575;27;20254;-87
2022/11/18 05:37:10;;;;;;;40.40;25.90;;;1.00;1.00;;;;;;5158620;27;21097;-86
2022/11/18 05:39:42;;;;;;;40.72;26.38;;;1.00;1.00;;;;;;5162407;27;20228;-84
2022/11/18 05:45:00;;;;;;;44.42;27.25;;;0.80;1.00;;;;;;5155544;27;20312;-78
2022/11/18 05:47:58;;;;;;;40.70;26.40;;;0.80;1.00;;;;;;5159474;27;20245;-82
2022/11/18 05:50:33;;;;;;;38.70;26.77;;;0.90;1.00;;;;;;5163408;27;21033;-85
2022/11/18 05:56:16;;;;;;;37.85;24.40;;;0.90;1.00;;;;;;5148453;27;20229;-82
2022/11/18 05:58:45;;;;;;;41.95;26.60;;;0.90;1.00;;;;;;5158603;27;20286;-84
2022/11/18 06:01:15;;;;;;;34.75;24.67;;;0.90;1.00;;;;;;5160960;27;20236;-81
2022/11/18 06:03:47;;;;;;;37.53;24.08;;;0.90;1.00;;;;;;5164251;27;20229;-82
2022/11/18 06:06:22;;;;;;;35.53;22.40;;;1.00;1.00;;;;;;5162976;27;20616;-81
2022/11/18 06:08:56;;;;;;;32.15;23.27;;;1.00;1.00;;;;;;5162887;27;20229;-80
2022/11/18 06:11:25;;;;;;;33.35;22.70;;;1.00;1.00;;;;;;5161989;27;20264;-82
2022/11/18 06:14:02;;;;;;;31.75;21.83;;;1.00;1.00;;;;;;5159962;27;20249;-83
2022/11/18 06:16:32;;;;;;;33.53;23.48;;;0.90;1.00;;;;;;5163860;27;20241;-78
2022/11/18 06:19:03;;;;;;;31.05;20.98;;;0.90;1.00;;;;;;5154893;27;20226;-78
2022/11/18 06:21:31;;;;;;;48.45;40.10;;;0.90;1.00;;;;;;5156504;27;21012;-77
2022/11/18 06:24:03;;;;;;;31.50;21.33;;;0.90;1.00;;;;;;5158554;27;20254;-80
2022/11/18 06:26:34;;;;;;;27.65;20.23;;;0.90;1.00;;;;;;5158930;27;20233;-78
2022/11/18 06:29:05;;;;;;;31.65;18.63;;;1.00;1.00;;;;;;5159584;27;20231;-82
2022/11/18 06:31:32;;;;;;;32.20;22.00;;;0.90;1.00;;;;;;5161869;27;20230;-81
2022/11/18 06:34:03;;;;;;;28.15;18.80;;;0.90;1.00;;;;;;5166966;27;20222;-83
2022/11/18 06:36:30;;;;;;;26.80;19.67;;;0.80;1.00;;;;;;5165387;27;20237;-82
2022/11/18 06:39:07;;;;;;;31.17;19.65;;;0.80;1.00;;;;;;5157985;27;20233;-82
2022/11/18 06:41:36;;;;;;;31.00;21.67;;;0.90;1.00;;;;;;5163083;27;20225;-83
2022/11/18 06:44:03;;;;;;;29.20;20.15;;;0.90;1.00;;;;;;5166341;27;20198;-81
2022/11/18 06:49:16;;;;;;;30.58;21.88;;;0.90;1.00;;;;;;5159873;27;20311;-82
2022/11/18 06:51:44;;;;;;;28.02;18.90;;;0.90;1.00;;;;;;5165164;27;20222;-83
2022/11/18 06:54:14;;;;;;;30.33;20.20;;;1.00;1.00;;;;;;5165346;27;20287;-86
2022/11/18 07:03:45;;;;;;;;;;;;;;;;;;;;;
2022/11/18 07:09:50;;;;;;;29.13;18.88;;;0.90;1.00;;;;;;4943583;28;20723;-84
2022/11/18 07:12:28;;;;;;;28.77;19.27;;;0.90;1.00;;;;;;5025458;28;20237;-84
2022/11/18 07:14:55;;;;;;;26.58;18.67;;;0.80;1.00;;;;;;5052594;28;20224;-89
2022/11/18 07:17:24;;;;;;;30.30;19.77;;;0.70;1.00;;;;;;5156476;27;20297;-83
2022/11/18 07:19:51;;;;;;;28.83;19.88;;;0.70;1.00;;;;;;5166515;27;20244;-80
2022/11/18 07:22:23;;;;;;;27.63;18.92;;;0.70;1.00;;;;;;5163171;27;20249;-84
2022/11/18 07:24:50;;;;;;;27.83;19.55;;;0.70;1.00;;;;;;5170280;27;20229;-86
2022/11/18 07:27:24;;;;;;;28.02;20.27;;;0.70;1.00;;;;;;5166620;27;20238;-81
2022/11/18 07:29:51;;;;;;;28.75;18.33;;;0.70;1.00;;;;;;5167857;27;20257;-83
2022/11/18 07:32:22;;;;;;;30.08;19.80;;;0.70;1.00;;;;;;5166760;27;20615;-85
2022/11/18 07:34:51;;;;;;;28.85;19.10;;;0.70;1.00;;;;;;5167526;27;20214;-85
2022/11/18 07:37:24;;;;;;;27.85;19.00;;;0.80;1.00;;;;;;5166024;27;20236;-85
2022/11/18 07:39:50;;;;;;;28.02;19.30;;;0.70;1.00;;;;;;5168206;27;20243;-84
2022/11/18 07:42:24;;;;;;;28.17;18.95;;;0.70;1.00;;;;;;5166689;27;20238;-82
2022/11/18 07:44:52;;;;;;;28.60;21.70;;;0.60;1.00;;;;;;5161527;27;20381;-78
2022/11/18 07:47:23;;;;;;;31.80;19.85;;;0.60;1.00;;;;;;5162561;27;20240;-79
2022/11/18 07:49:50;;;;;;;28.95;20.80;;;0.60;1.00;;;;;;5163564;27;20242;-82
2022/11/18 07:52:25;;;;;;;30.73;22.17;;;0.60;1.00;;;;;;5167512;27;20245;-82
2022/11/18 07:54:52;;;;;;;30.40;19.25;;;0.70;1.00;;;;;;5169204;27;20293;-84
2022/11/18 07:57:26;;;;;;;32.17;20.42;;;0.70;1.00;;;;;;5150180;27;20225;-87
2022/11/18 07:59:53;;;;;;;32.72;20.63;;;0.70;1.00;;;;;;5146093;27;20238;-88
2022/11/18 08:02:30;;;;;;;27.98;19.45;;;0.80;1.00;;;;;;5140538;27;20286;-82
2022/11/18 08:04:57;;;;;;;29.50;20.92;;;0.90;1.00;;;;;;5143758;27;20311;-86
2022/11/18 08:07:31;;;;;;;30.88;20.77;;;1.10;1.00;;;;;;5140580;27;20206;-85
2022/11/18 08:10:12;;;;;;;28.15;20.17;;;1.00;1.00;;;;;;5143811;27;20230;-79
2022/11/18 08:12:47;;;;;;;28.55;20.90;;;1.00;1.00;;;;;;5142583;27;20226;-85
2022/11/18 08:15:14;;;;;;;26.50;18.77;;;1.10;1.00;;;;;;5145865;27;20255;-85
2022/11/18 08:17:47;;;;;;;29.48;20.83;;;1.00;1.00;;;;;;5146108;27;20235;-83
2022/11/18 08:20:15;;;;;;;28.98;19.95;;;1.00;1.00;;;;;;5149549;27;20238;-85
2022/11/18 08:22:45;;;;;;;30.50;20.25;;;1.00;1.00;;;;;;5147244;27;20296;-87
2022/11/18 08:25:13;;;;;;;26.80;18.73;;;1.00;1.00;;;;;;5146558;27;20234;-87
2022/11/18 08:27:50;;;;;;;27.73;19.10;;;1.10;1.00;;;;;;5152005;27;20272;-85
2022/11/18 08:30:26;;;;;;;27.98;18.77;;;1.00;1.00;;;;;;5128463;27;21027;-83
2022/11/18 08:35:35;;;;;;;27.38;18.63;;;1.00;1.00;;;;;;5145095;27;20347;-80
2022/11/18 08:38:04;;;;;;;26.90;19.77;;;0.90;1.00;;;;;;5144612;27;20217;-84
2022/11/18 08:40:31;;;;;;;27.02;19.00;;;0.90;1.00;;;;;;5129560;27;20231;-83
2022/11/18 08:43:09;;;;;;;30.70;19.95;;;0.90;1.00;;;;;;5147365;27;20287;-87
2022/11/18 08:45:44;;;;;;;26.30;18.05;;;0.90;1.00;;;;;;5146834;27;20242;-83
2022/11/18 08:48:12;;;;;;;26.85;17.42;;;1.00;1.00;;;;;;5138167;27;20265;-81
2022/11/18 08:50:52;;;;;;;25.17;18.40;;;1.00;1.00;;;;;;5144395;27;20299;-84
2022/11/18 08:53:19;;;;;;;26.13;18.77;;;1.00;1.00;;;;;;5151201;27;20312;-85
2022/11/18 08:55:47;;;;;;;25.05;17.88;;;0.90;1.00;;;;;;5154576;27;20291;-84
2022/11/18 08:58:17;;;;;;;25.63;18.77;;;0.70;1.00;;;;;;5166739;27;20233;-84
2022/11/18 09:00:44;;;;;;;27.33;17.65;;;0.80;1.00;;;;;;5161729;27;20235;-86
2022/11/18 09:03:11;;;;;;;28.15;19.05;;;0.80;1.00;;;;;;5322383;22;20222;-85
2022/11/18 09:05:47;;;;;;;27.10;19.02;;;0.70;1.00;;;;;;5160965;27;20261;-85
2022/11/18 09:08:15;;;;;;;28.40;19.00;;;0.60;1.00;;;;;;5162194;27;20229;-84
2022/11/18 09:10:45;;;;;;;27.15;17.83;;;0.60;1.00;;;;;;5163649;27;20222;-82
2022/11/18 09:13:14;;;;;;;28.75;19.73;;;0.60;1.00;;;;;;5162652;27;20961;-85
2022/11/18 09:15:46;;;;;;;28.48;19.15;;;0.50;1.00;;;;;;5163018;27;20219;-82
2022/11/18 09:18:13;;;;;;;26.08;19.27;;;0.50;1.00;;;;;;5153024;27;20238;-82
2022/11/18 09:20:40;;;;;;;30.08;18.67;;;0.60;1.00;;;;;;5161600;27;20237;-87
2022/11/18 09:23:07;;;;;;;24.98;18.88;;;0.50;1.00;;;;;;5158532;27;20230;-85
2022/11/18 09:25:34;;;;;;;29.60;18.40;;;0.50;1.00;;;;;;5163449;27;20241;-88
2022/11/18 09:28:06;;;;;;;25.70;17.98;;;0.60;1.00;;;;;;5163859;27;20222;-85
2022/11/18 09:30:36;;;;;;;22.23;16.38;;;0.60;1.00;;;;;;5170473;27;20210;-89
2022/11/18 09:33:06;;;;;;;22.65;15.02;;;0.60;1.00;;;;;;5166435;27;20843;-83
2022/11/18 09:35:42;;;;;;;21.30;15.80;;;0.60;1.00;;;;;;5161144;27;20218;-85
2022/11/18 09:38:18;;;;;;;22.15;15.75;;;0.60;1.00;;;;;;5166471;27;20237;-88
2022/11/18 09:41:17;;;;;;;23.67;16.20;;;0.60;1.00;;;;;;5160755;27;20287;-83
2022/11/18 09:44:04;;;;;;;23.70;15.32;;;0.70;1.00;;;;;;5161161;27;20238;-85
2022/11/18 09:46:43;;;;;;;18.77;13.27;;;0.80;1.00;;;;;;5151438;27;20230;-86
2022/11/18 09:52:23;;;;;;;19.50;12.68;;;0.90;1.00;;;;;;5669229;22;20964;-78
2022/11/18 10:00:02;;;;;;;19.80;14.35;;;0.60;1.00;;;;;;1424971;25;20233;-81
2022/11/18 10:02:48;;;;;;;19.92;13.05;;;0.80;1.00;;;;;;5146021;27;20265;-82
2022/11/18 10:05:23;;;;;;;19.17;12.10;;;0.80;1.00;;;;;;5139594;27;20222;-85
2022/11/18 10:08:03;;;;;;;16.35;10.02;;;0.90;1.00;;;;;;5148933;27;20244;-86
2022/11/18 10:10:42;;;;;;;16.42;10.35;;;0.90;1.00;;;;;;5142028;27;20231;-84
2022/11/18 10:13:23;;;;;;;16.42;10.45;;;0.90;1.00;;;;;;5160449;27;20233;-82
2022/11/18 10:16:03;;;;;;;15.52;10.63;;;0.90;1.00;;;;;;5156116;27;20242;-88
2022/11/18 10:18:44;;;;;;;15.57;10.18;;;0.90;1.00;;;;;;5150758;27;20219;-80
2022/11/18 10:21:25;;;;;;;17.27;9.95;;;0.90;1.00;;;;;;5159393;27;20215;-86
2022/11/18 10:23:59;;;;;;;15.13;10.55;;;0.90;1.00;;;;;;5161545;27;20235;-87
2022/11/18 10:26:40;;;;;;;13.73;9.88;;;1.00;1.00;;;;;;5162359;27;20242;-82
2022/11/18 10:29:09;;;;;;;15.20;11.05;;;1.00;1.00;;;;;;5154157;27;20234;-85
2022/11/18 10:31:57;;;;;;;15.75;10.05;;;1.10;1.00;;;;;;5168194;27;20214;-82
2022/11/18 10:34:24;;;;;;;15.75;9.85;;;1.10;1.00;;;;;;5108842;27;20242;-83
2022/11/18 10:37:02;;;;;;;13.98;9.38;;;1.10;1.00;;;;;;5134599;27;20235;-83
2022/11/18 10:39:29;;;;;;;14.82;9.55;;;1.10;1.00;;;;;;5124149;27;20242;-88
2022/11/18 10:42:01;;;;;;;14.15;9.32;;;1.00;1.00;;;;;;5151902;27;20236;-88
2022/11/18 10:44:31;;;;;;;15.95;9.82;;;1.00;1.00;;;;;;5129517;27;20241;-84
2022/11/18 10:47:27;;;;;;;14.98;9.88;;;1.00;1.00;;;;;;5122041;27;20247;-86
2022/11/18 10:49:55;;;;;;;13.85;9.10;;;0.90;1.00;;;;;;5118391;27;20219;-87
2022/11/18 10:52:27;;;;;;;16.38;10.73;;;1.00;1.00;;;;;;5122016;27;20266;-87
2022/11/18 10:55:30;;;;;;;14.50;9.75;;;1.10;1.00;;;;;;5151796;27;20231;-88
2022/11/18 10:58:07;;;;;;;16.23;10.88;;;1.00;1.00;;;;;;5145464;27;20453;-85
2022/11/18 11:00:47;;;;;;;14.27;9.35;;;1.20;1.00;;;;;;5140191;27;20297;-84
2022/11/18 11:03:37;;;;;;;19.25;11.23;;;1.20;1.00;;;;;;5138967;27;20302;-83
2022/11/18 11:06:33;;;;;;;15.45;10.02;;;1.10;1.00;;;;;;5140115;27;20240;-83
2022/11/18 11:09:11;;;;;;;14.18;9.10;;;1.10;1.00;;;;;;5140265;27;20431;-84
2022/11/18 11:11:42;;;;;;;15.40;11.32;;;1.10;1.00;;;;;;5139119;27;20227;-85
2022/11/18 11:14:32;;;;;;;15.27;10.30;;;1.00;1.00;;;;;;5135797;27;20246;-84
2022/11/18 11:17:06;;;;;;;18.48;11.77;;;0.90;1.00;;;;;;5141432;27;20230;-81
2022/11/18 11:19:43;;;;;;;19.02;10.80;;;1.00;1.00;;;;;;5140881;27;20256;-88
2022/11/18 11:22:20;;;;;;;15.23;10.70;;;1.10;1.00;;;;;;5139057;27;21019;-82
2022/11/18 11:24:49;;;;;;;16.73;11.20;;;1.10;1.00;;;;;;5141990;27;20230;-89
2022/11/18 11:27:46;;;;;;;14.70;10.60;;;1.10;1.00;;;;;;5145166;27;20245;-88
2022/11/18 11:30:21;;;;;;;18.67;10.65;;;1.20;1.00;;;;;;5144614;27;20231;-81
2022/11/18 11:33:49;;;;;;;16.30;10.80;;;1.20;1.00;;;;;;5143996;27;20329;-81
2022/11/18 11:36:43;;;;;;;15.98;11.27;;;1.20;1.00;;;;;;5147891;27;20226;-84
2022/11/18 11:39:31;;;;;;;18.02;9.48;;;1.30;1.00;;;;;;5139863;27;20243;-83
2022/11/18 11:42:19;;;;;;;17.27;9.82;;;1.40;1.00;;;;;;5141493;27;20235;-83
2022/11/18 11:45:03;;;;;;;15.93;10.45;;;1.40;1.00;;;;;;5126179;27;20718;-82
2022/11/18 11:47:49;;;;;;;19.10;11.00;;;1.40;1.00;;;;;;5112641;27;20923;-82
2022/11/18 11:50:23;;;;;;;15.43;10.10;;;1.30;1.00;;;;;;5119794;27;20935;-80
2022/11/18 11:53:13;;;;;;;15.45;9.57;;;1.30;1.00;;;;;;5129445;27;20231;-85
2022/11/18 11:55:53;;;;;;;15.00;9.80;;;1.30;1.00;;;;;;5135771;27;20231;-84
2022/11/18 11:58:48;;;;;;;16.77;10.23;;;1.40;1.00;;;;;;5121021;27;20215;-84
2022/11/18 12:01:21;;;;;;;15.50;10.23;;;1.50;1.00;;;;;;5104514;27;20259;-82
2022/11/18 12:04:08;;;;;;;15.07;9.77;;;1.60;1.00;;;;;;5134114;27;20215;-79
2022/11/18 12:06:36;;;;;;;17.30;10.80;;;1.80;1.00;;;;;;5129955;27;20243;-83
2022/11/18 12:09:12;;;;;;;16.92;10.95;;;1.80;1.00;;;;;;5128203;27;20222;-82
2022/11/18 12:11:51;;;;;;;17.08;9.13;;;1.70;1.00;;;;;;5133148;27;20606;-83
2022/11/18 12:14:39;;;;;;;15.13;9.65;;;1.80;1.00;;;;;;5118224;27;21190;-84
2022/11/18 12:17:19;;;;;;;16.00;9.70;;;1.60;1.00;;;;;;5112481;27;20236;-81
2022/11/18 12:19:52;;;;;;;16.08;9.15;;;1.60;1.00;;;;;;5127861;27;20218;-82
2022/11/18 12:22:19;;;;;;;15.57;9.00;;;1.80;1.00;;;;;;5132265;27;20876;-83
2022/11/18 12:24:50;;;;;;;13.25;8.20;;;1.90;1.00;;;;;;5127010;27;20219;-80
2022/11/18 12:27:58;;;;;;;13.45;8.05;;;2.20;1.00;;;;;;5116585;27;20235;-80
2022/11/18 12:30:36;;;;;;;14.00;8.63;;;2.10;1.00;;;;;;5200162;22;20211;-85
2022/11/18 12:33:18;;;;;;;11.48;7.80;;;2.00;1.00;;;;;;5133753;27;20299;-83
2022/11/18 12:35:53;;;;;;;12.55;7.60;;;1.80;1.00;;;;;;5142060;27;20223;-82
2022/11/18 12:38:32;;;;;;;12.20;7.40;;;1.80;1.00;;;;;;5134693;27;20261;-81
2022/11/18 12:43:45;;;;;;;12.65;7.55;;;1.90;1.00;;;;;;5131225;27;20427;-88
2022/11/18 12:44:10;;;;;;;12.18;7.60;;;2.10;1.00;;;;;;5141603;27;20227;-83
2022/11/18 12:46:53;;;;;;;12.90;7.40;;;2.30;1.00;;;;;;5142813;27;20232;-81
2022/11/18 12:49:54;;;;;;;14.02;7.95;;;2.50;1.00;;;;;;5125849;28;20249;-82
2022/11/18 12:52:49;;;;;;;11.20;7.00;;;2.70;1.00;;;;;;5088469;27;20236;-83
2022/11/18 12:55:21;;;;;;;12.35;6.80;;;3.20;1.00;;;;;;5118965;27;20913;-83
2022/11/18 12:57:48;;;;;;;12.32;7.60;;;4.50;1.00;;;;;;5121546;27;20232;-83
2022/11/18 13:00:29;;;;;;;11.70;7.30;;;5.00;1.00;;;;;;5146610;27;20210;-83
2022/11/18 13:03:00;;;;;;;14.77;7.72;;;4.80;1.00;;;;;;5148864;27;20231;-83
2022/11/18 13:05:29;;;;;;;13.52;7.72;;;4.70;1.00;;;;;;5131184;27;21055;-83
2022/11/18 13:08:14;;;;;;;10.70;6.97;;;5.10;1.00;;;;;;5141737;27;20219;-82
2022/11/18 13:10:49;;;;;;;12.73;8.18;;;5.70;1.00;;;;;;5119438;27;20236;-82
2022/11/18 13:13:25;;;;;;;13.50;8.30;;;5.50;1.00;;;;;;5123364;27;20240;-83
2022/11/18 13:18:52;;;;;;;15.57;10.85;;;3.90;1.00;;;;;;5124936;27;20728;-80
2022/11/18 13:24:13;;;;;;;11.00;7.32;;;3.00;1.00;;;;;;5118707;27;20319;-80
2022/11/18 13:26:44;;;;;;;11.80;8.10;;;2.60;1.00;;;;;;5113908;27;20264;-80
2022/11/18 13:29:32;;;;;;;11.23;8.40;;;2.30;1.00;;;;;;5124842;27;20241;-82
2022/11/18 13:32:13;;;;;;;12.23;8.05;;;2.10;1.00;;;;;;5097457;28;21024;-81
2022/11/18 13:34:46;;;;;;;14.05;9.10;;;1.90;1.00;;;;;;5102747;28;20318;-79
2022/11/18 13:37:18;;;;;;;13.10;8.65;;;1.80;1.00;;;;;;5097796;28;20335;-81
2022/11/18 13:39:49;;;;;;;12.48;7.68;;;1.70;1.00;;;;;;5098727;28;20220;-80
2022/11/18 13:42:19;;;;;;;12.48;7.57;;;1.70;1.00;;;;;;5100692;28;20229;-80
2022/11/18 13:44:52;;;;;;;13.73;7.88;;;1.70;1.00;;;;;;5098566;28;20243;-79
2022/11/18 13:47:33;;;;;;;12.90;8.57;;;1.60;1.00;;;;;;5098068;28;20241;-80
2022/11/18 13:50:15;;;;;;;12.48;7.32;;;1.60;1.00;;;;;;5106057;28;20751;-81
2022/11/18 13:52:47;;;;;;;12.82;7.80;;;1.50;1.00;;;;;;5098979;28;20265;-80
2022/11/18 13:58:40;;;;;;;11.35;7.15;;;1.30;1.00;;;;;;5100769;28;21000;-81
2022/11/18 14:01:20;;;;;;;12.27;7.68;;;1.20;1.00;;;;;;5103924;28;20243;-80
2022/11/18 14:03:58;;;;;;;12.75;6.70;;;1.20;1.00;;;;;;5105015;28;20246;-82
2022/11/18 14:06:31;;;;;;;13.20;8.98;;;1.20;1.00;;;;;;5104602;28;20248;-82
2022/11/18 14:09:07;;;;;;;10.82;6.45;;;1.30;1.00;;;;;;5103046;28;20246;-80
2022/11/18 14:11:42;;;;;;;12.48;7.85;;;1.30;1.00;;;;;;5102080;28;20239;-81
2022/11/18 14:14:12;;;;;;;11.52;7.13;;;1.20;1.00;;;;;;5106402;28;20236;-86
2022/11/18 14:16:41;;;;;;;13.27;7.65;;;1.20;1.00;;;;;;5108537;28;20217;-86